North Haverhill, New Hampshire
Current Conditions -  °F | °C
As of 1:35 PM on Thursday 27 Nov 2014 (Local Time) from K1P1 Reporting Station
Scattered Clouds Scattered Clouds  
Wind Chill: 24°   Ceiling: Unl
Heat Index: 32°   Visibility: 10mi
Dew Point: 26°   Wind: 10mph
Humidity: 78%   Direction: 270°W
Pressure: 29.94"   Gusts: 20mph
Location:  44.09°N, 72.03°W
Report Text: K1P1 271835Z AUTO 27009G17KT 10SM SCT028 00/M03 A2994 RMK AO2 T00001034
Loading
Personal Weather Stations






























Interactive Weather Map New forecast layout! Learn more

10-Day Weather Forecast

Advertisements
Track Severe Weather on mobile